Kaneohe, Hawaii
Current Conditions -  °F | °C
As of 5:57 AM on Friday 21 Nov 2014 (Local Time) from PHNG Reporting Station
Scattered Clouds Scattered Clouds  
Wind Chill: 77°   Ceiling: Unl
Heat Index: 79°   Visibility: 10mi
Dew Point: 69°   Wind: 6mph
Humidity: 76%   Direction: 80°E
Pressure: 30.06"   Gusts: NA
Location:  21.42°N, 157.8°W
Report Text: PHNG 211557Z 08005KT 10SM SCT049 25/21 A3006 RMK AO2 RAB12E28 SLP172 P0000 T02500206 $
Loading
Personal Weather Stations






























Interactive Weather Map New forecast layout! Learn more

10-Day Weather Forecast

Advertisements
Track Severe Weather on mobile